Time;durP1;ratioP1;P1;durP2;ratioP2;P2;SDS_P1;SDS_P2;PMS_P1;PMS_P2;Temp;Humidity;BMP_temperature;BMP_pressure;BME280_temperature;BME280_humidity;BME280_pressure;Samples;Min_cycle;Max_cycle;Signal;HPM_P1;HPM_P2
2022/05/05 00:00:18;;;;;;;18.27;8.27;;;10.00;99.90;;;;;;5001684;28;20210;-85
2022/05/05 00:02:45;;;;;;;24.70;9.37;;;9.90;99.90;;;;;;5004531;28;20207;-84
2022/05/05 00:05:15;;;;;;;13.60;8.27;;;9.90;99.90;;;;;;5001562;28;20213;-85
2022/05/05 00:07:42;;;;;;;18.50;8.00;;;9.80;99.90;;;;;;5001079;28;20584;-84
2022/05/05 00:15:46;;;;;;;19.33;7.70;;;9.70;99.90;;;;;;4997181;28;20224;-85
2022/05/05 00:18:13;;;;;;;16.00;7.57;;;9.70;99.90;;;;;;4994314;28;20212;-86
2022/05/05 00:20:41;;;;;;;16.77;8.30;;;9.70;99.90;;;;;;4991805;28;20234;-85
2022/05/05 00:23:09;;;;;;;14.53;8.00;;;9.60;99.90;;;;;;4991022;28;20868;-85
2022/05/05 00:25:36;;;;;;;16.60;7.73;;;9.60;99.90;;;;;;4969308;28;20202;-84
2022/05/05 00:28:04;;;;;;;17.10;8.43;;;9.50;99.90;;;;;;4972958;28;20233;-85
2022/05/05 00:30:30;;;;;;;14.13;7.57;;;9.50;99.90;;;;;;4996747;28;20258;-84
2022/05/05 00:32:58;;;;;;;14.63;7.77;;;9.50;99.90;;;;;;4982670;28;20205;-85
2022/05/05 00:35:25;;;;;;;14.80;9.33;;;9.50;99.90;;;;;;4997578;28;20221;-84
2022/05/05 00:37:52;;;;;;;18.57;8.13;;;9.50;99.90;;;;;;4994598;28;20212;-85
2022/05/05 00:40:18;;;;;;;17.67;8.70;;;9.40;99.90;;;;;;4996933;28;20231;-84
2022/05/05 00:42:46;;;;;;;17.20;8.20;;;9.40;99.90;;;;;;4996840;28;20227;-85
2022/05/05 00:45:12;;;;;;;17.07;8.17;;;9.40;99.90;;;;;;4998533;28;20327;-84
2022/05/05 00:47:39;;;;;;;16.47;8.93;;;9.40;99.90;;;;;;4999053;28;20227;-83
2022/05/05 00:50:07;;;;;;;15.57;8.60;;;9.40;99.90;;;;;;5000144;28;20239;-84
2022/05/05 00:52:34;;;;;;;17.33;8.30;;;9.30;99.90;;;;;;5000759;28;20199;-80
2022/05/05 00:55:01;;;;;;;15.23;7.83;;;9.30;99.90;;;;;;4981505;28;20206;-84
2022/05/05 00:57:29;;;;;;;14.23;7.50;;;9.30;99.90;;;;;;4995821;28;20208;-83
2022/05/05 01:00:00;;;;;;;13.80;7.33;;;9.30;99.90;;;;;;4975557;28;20212;-84
2022/05/05 01:02:27;;;;;;;14.87;7.00;;;9.30;99.90;;;;;;4988627;28;20287;-85
2022/05/05 01:04:55;;;;;;;16.33;8.20;;;9.30;99.90;;;;;;4991121;28;20224;-84
2022/05/05 01:07:25;;;;;;;19.03;8.97;;;9.30;99.90;;;;;;4988856;28;20224;-84
2022/05/05 01:09:53;;;;;;;17.10;8.87;;;9.30;99.90;;;;;;4988762;28;20223;-86
2022/05/05 01:12:23;;;;;;;15.47;7.73;;;9.10;99.90;;;;;;4986984;28;20211;-86
2022/05/05 01:14:49;;;;;;;17.03;8.67;;;9.30;99.90;;;;;;4987286;28;20259;-85
2022/05/05 01:17:16;;;;;;;16.40;7.93;;;9.30;99.90;;;;;;4984729;28;20273;-84
2022/05/05 01:19:43;;;;;;;19.43;8.60;;;9.30;99.90;;;;;;4984780;28;20231;-84
2022/05/05 01:22:10;;;;;;;20.03;9.80;;;9.30;99.90;;;;;;4985748;28;20200;-84
2022/05/05 01:30:12;;;;;;;16.70;8.63;;;9.20;99.90;;;;;;4989941;28;20270;-84
2022/05/05 01:32:39;;;;;;;14.93;8.60;;;9.20;99.90;;;;;;4990219;28;21456;-85
2022/05/05 01:35:07;;;;;;;13.33;8.03;;;9.20;99.90;;;;;;4988562;28;20227;-84
2022/05/05 01:37:33;;;;;;;18.53;8.17;;;9.10;99.90;;;;;;4988807;28;20250;-83
2022/05/05 01:40:00;;;;;;;18.43;7.73;;;9.10;99.90;;;;;;4993965;28;20222;-84
2022/05/05 01:42:27;;;;;;;18.50;8.00;;;9.00;99.90;;;;;;4996928;28;21686;-84
2022/05/05 01:44:54;;;;;;;14.57;7.97;;;9.00;99.90;;;;;;4996143;28;20774;-86
2022/05/05 01:47:21;;;;;;;12.60;6.97;;;9.00;99.90;;;;;;4989096;28;20230;-85
2022/05/05 01:49:48;;;;;;;19.57;6.93;;;9.00;99.90;;;;;;4986722;28;20714;-86
2022/05/05 01:52:15;;;;;;;15.63;8.27;;;8.90;99.90;;;;;;4989765;28;20295;-84
2022/05/05 01:54:41;;;;;;;17.97;7.93;;;8.90;99.90;;;;;;4991003;28;20218;-85
2022/05/05 01:57:08;;;;;;;16.07;7.97;;;8.90;99.90;;;;;;4989243;28;20202;-84
2022/05/05 01:59:36;;;;;;;15.87;8.23;;;8.90;99.90;;;;;;4987522;28;20571;-84
2022/05/05 02:02:03;;;;;;;15.73;7.20;;;8.80;99.90;;;;;;4988533;28;20271;-86
2022/05/05 02:04:31;;;;;;;20.63;8.40;;;8.80;99.90;;;;;;4989211;28;20377;-85
2022/05/05 02:07:01;;;;;;;18.90;8.53;;;8.80;99.90;;;;;;4989383;28;20223;-84
2022/05/05 02:09:28;;;;;;;18.07;8.13;;;8.80;99.90;;;;;;5002146;28;20234;-84
2022/05/05 02:11:55;;;;;;;15.73;7.87;;;8.80;99.90;;;;;;5002112;28;20237;-84
2022/05/05 02:14:24;;;;;;;16.90;8.47;;;8.70;99.90;;;;;;5003200;28;20650;-86
2022/05/05 02:16:51;;;;;;;14.83;7.37;;;;;;;;;;5003832;28;20253;-85
2022/05/05 02:19:19;;;;;;;17.57;8.20;;;8.70;99.90;;;;;;5002993;28;20225;-84
2022/05/05 02:21:46;;;;;;;16.70;8.07;;;8.60;99.90;;;;;;5000963;28;20214;-85
2022/05/05 02:24:12;;;;;;;20.60;8.53;;;8.60;99.90;;;;;;4997663;28;20200;-85
2022/05/05 02:26:39;;;;;;;13.97;7.47;;;8.60;99.90;;;;;;4973237;28;20209;-85
2022/05/05 02:29:06;;;;;;;16.17;8.30;;;8.50;99.90;;;;;;4986435;28;20546;-85
2022/05/05 02:31:34;;;;;;;16.77;8.00;;;8.50;99.90;;;;;;4993375;28;20206;-85
2022/05/05 02:34:08;;;;;;;18.10;8.33;;;8.50;99.90;;;;;;4993059;28;20234;-84
2022/05/05 02:39:22;;;;;;;14.60;8.00;;;8.30;99.90;;;;;;4985672;28;20221;-82
2022/05/05 02:41:49;;;;;;;17.93;8.80;;;8.30;99.90;;;;;;4986678;28;20690;-84
2022/05/05 02:44:16;;;;;;;16.47;8.40;;;8.30;99.90;;;;;;4989936;28;20197;-84
2022/05/05 02:46:43;;;;;;;16.40;7.90;;;8.30;99.90;;;;;;4990242;28;20241;-85
2022/05/05 02:49:12;;;;;;;16.47;8.10;;;8.20;99.90;;;;;;4992163;28;20262;-83
2022/05/05 02:51:39;;;;;;;17.67;8.07;;;8.10;99.90;;;;;;4996614;28;20205;-82
2022/05/05 02:57:00;;;;;;;18.90;8.47;;;8.00;99.90;;;;;;4987620;28;20194;-84
2022/05/05 02:59:27;;;;;;;13.80;8.10;;;8.10;99.90;;;;;;4989082;28;20233;-85
2022/05/05 03:01:53;;;;;;;16.87;7.80;;;8.00;99.90;;;;;;4985296;28;20235;-85
2022/05/05 03:04:22;;;;;;;17.83;8.20;;;8.00;99.90;;;;;;4986814;28;20241;-86
2022/05/05 03:06:49;;;;;;;13.87;8.83;;;7.90;99.90;;;;;;4989005;28;20214;-84
2022/05/05 03:09:16;;;;;;;18.37;8.03;;;7.90;99.90;;;;;;4991511;28;20260;-85
2022/05/05 03:11:48;;;;;;;16.93;7.40;;;7.80;99.90;;;;;;4987717;28;20226;-84
2022/05/05 03:14:16;;;;;;;17.47;8.30;;;7.80;99.90;;;;;;4991471;28;20256;-85
2022/05/05 03:16:43;;;;;;;16.90;7.57;;;7.80;99.90;;;;;;4993357;28;20211;-84
2022/05/05 03:19:10;;;;;;;16.70;8.47;;;7.80;99.90;;;;;;4985380;28;20216;-85
2022/05/05 03:21:37;;;;;;;15.27;8.00;;;7.70;99.90;;;;;;4989508;28;20205;-84
2022/05/05 03:24:04;;;;;;;18.13;8.93;;;7.70;99.90;;;;;;4974596;28;20226;-85
2022/05/05 03:26:32;;;;;;;17.13;9.00;;;7.60;99.90;;;;;;4990958;28;20229;-86
2022/05/05 03:29:01;;;;;;;19.97;8.53;;;7.60;99.90;;;;;;4993013;28;20210;-85
2022/05/05 03:31:27;;;;;;;20.77;8.17;;;7.60;99.90;;;;;;4990478;28;20204;-85
2022/05/05 03:33:56;;;;;;;17.00;8.40;;;7.50;99.90;;;;;;4989126;28;20272;-84
2022/05/05 03:36:23;;;;;;;15.83;8.00;;;7.50;99.90;;;;;;4989220;28;20262;-85
2022/05/05 03:38:51;;;;;;;18.23;8.70;;;7.40;99.90;;;;;;4991429;28;20289;-83
2022/05/05 03:41:19;;;;;;;17.77;8.53;;;7.40;99.90;;;;;;4991408;28;20210;-85
2022/05/05 03:43:52;;;;;;;17.77;7.80;;;7.70;99.90;;;;;;4992256;28;20233;-85
2022/05/05 03:46:19;;;;;;;16.73;7.30;;;7.40;99.90;;;;;;4988270;28;20845;-84
2022/05/05 03:48:46;;;;;;;15.87;7.30;;;7.30;99.90;;;;;;4990205;28;20355;-85
2022/05/05 03:51:12;;;;;;;16.67;8.53;;;7.20;99.90;;;;;;4974886;28;21303;-84
2022/05/05 03:53:39;;;;;;;17.40;7.93;;;7.30;99.90;;;;;;4990357;28;20252;-85
2022/05/05 03:56:06;;;;;;;17.87;8.27;;;7.20;99.90;;;;;;4977795;28;20196;-86
2022/05/05 03:58:35;;;;;;;17.33;8.37;;;7.20;99.90;;;;;;4993462;28;20291;-83
2022/05/05 04:01:05;;;;;;;16.67;7.53;;;7.20;99.90;;;;;;4989079;28;20223;-85
2022/05/05 04:03:32;;;;;;;16.70;8.33;;;7.20;99.90;;;;;;4988435;28;20232;-86
2022/05/05 04:06:05;;;;;;;15.30;8.03;;;7.20;99.90;;;;;;4968114;28;20205;-85
2022/05/05 04:08:35;;;;;;;17.10;8.27;;;7.10;99.90;;;;;;4986242;28;20252;-86
2022/05/05 04:11:04;;;;;;;16.27;8.40;;;7.10;99.90;;;;;;4986803;28;20228;-85
2022/05/05 04:13:30;;;;;;;16.73;8.30;;;7.10;99.90;;;;;;4985367;28;20294;-86
2022/05/05 04:15:57;;;;;;;13.97;8.00;;;7.10;99.90;;;;;;4984596;28;20213;-84
2022/05/05 04:18:24;;;;;;;15.50;8.00;;;7.10;99.90;;;;;;4985684;28;20192;-85
2022/05/05 04:20:51;;;;;;;16.27;8.13;;;7.10;99.90;;;;;;4985511;28;20244;-84
2022/05/05 04:23:19;;;;;;;16.07;8.53;;;7.10;99.90;;;;;;4965689;28;20201;-84
2022/05/05 04:26:06;;;;;;;15.10;7.67;;;7.10;99.90;;;;;;4984083;28;20206;-85
2022/05/05 04:28:33;;;;;;;17.30;8.23;;;7.10;99.90;;;;;;4985088;28;20205;-85
2022/05/05 04:31:00;;;;;;;16.13;8.30;;;7.10;99.90;;;;;;4985873;28;20256;-83
2022/05/05 04:33:29;;;;;;;20.57;9.30;;;7.10;99.90;;;;;;4986773;28;20223;-85
2022/05/05 04:35:57;;;;;;;20.27;9.93;;;7.10;99.90;;;;;;4987158;28;20214;-85
2022/05/05 04:38:24;;;;;;;22.60;10.30;;;7.20;99.90;;;;;;4987769;28;20267;-85
2022/05/05 04:40:52;;;;;;;20.23;9.77;;;7.20;99.90;;;;;;4990557;28;20205;-84
2022/05/05 04:43:18;;;;;;;24.23;9.80;;;7.20;99.90;;;;;;4992298;28;20309;-85
2022/05/05 04:45:47;;;;;;;16.97;8.87;;;7.20;99.90;;;;;;4992615;28;20206;-85
2022/05/05 04:48:15;;;;;;;17.10;9.50;;;7.20;99.90;;;;;;4993475;28;20205;-84
2022/05/05 04:50:42;;;;;;;15.17;8.50;;;7.20;99.90;;;;;;4992958;28;20248;-85
2022/05/05 04:53:09;;;;;;;18.90;9.40;;;7.20;99.90;;;;;;4997068;28;20656;-85
2022/05/05 04:55:36;;;;;;;20.20;9.80;;;7.30;99.90;;;;;;4980166;28;20209;-84
2022/05/05 04:58:02;;;;;;;16.00;9.23;;;7.40;99.90;;;;;;5002022;28;20205;-85
2022/05/05 05:00:30;;;;;;;18.97;9.97;;;7.40;99.90;;;;;;4987508;28;20209;-85
2022/05/05 05:02:57;;;;;;;20.17;9.03;;;7.40;99.90;;;;;;4998709;28;20252;-84
2022/05/05 05:05:25;;;;;;;16.50;9.37;;;7.50;99.90;;;;;;4980876;28;20217;-84
2022/05/05 05:07:53;;;;;;;17.30;8.70;;;7.60;99.90;;;;;;4989251;28;20266;-85
2022/05/05 05:10:19;;;;;;;16.53;9.10;;;7.60;99.90;;;;;;5007548;28;20221;-81
2022/05/05 05:12:47;;;;;;;16.73;8.77;;;7.70;99.90;;;;;;5004838;28;20210;-83
2022/05/05 05:15:14;;;;;;;14.90;8.00;;;7.80;99.90;;;;;;5007125;28;20290;-85
2022/05/05 05:17:42;;;;;;;18.23;8.97;;;7.90;99.90;;;;;;4990861;28;20190;-84
2022/05/05 05:20:09;;;;;;;16.77;8.40;;;7.90;99.90;;;;;;5007342;28;20230;-85
2022/05/05 05:22:37;;;;;;;13.07;7.87;;;8.00;99.90;;;;;;4974886;28;20573;-84
2022/05/05 05:25:04;;;;;;;15.57;8.53;;;8.10;99.90;;;;;;4991904;28;20217;-84
2022/05/05 05:27:31;;;;;;;17.00;8.77;;;8.10;99.90;;;;;;4992565;28;20252;-83
2022/05/05 05:29:58;;;;;;;13.63;8.27;;;8.20;99.90;;;;;;4996313;28;20257;-82
2022/05/05 05:32:35;;;;;;;18.73;9.17;;;8.30;99.90;;;;;;5000401;28;20722;-85
2022/05/05 05:35:04;;;;;;;17.30;9.33;;;8.40;99.90;;;;;;5002722;28;20254;-84
2022/05/05 05:37:30;;;;;;;24.40;9.20;;;8.40;99.90;;;;;;5002592;28;20208;-84
2022/05/05 05:39:58;;;;;;;19.57;8.97;;;8.50;99.90;;;;;;5006021;28;20210;-84
2022/05/05 05:42:26;;;;;;;20.57;9.00;;;8.50;99.90;;;;;;5009945;28;20235;-86
2022/05/05 05:44:53;;;;;;;16.00;9.07;;;8.60;99.90;;;;;;5010464;28;20222;-86
2022/05/05 05:47:21;;;;;;;17.47;9.23;;;8.80;99.90;;;;;;5010417;28;20291;-85
2022/05/05 05:49:59;;;;;;;21.70;10.10;;;8.90;99.90;;;;;;5011335;28;20240;-85
2022/05/05 05:52:26;;;;;;;18.83;9.83;;;;;;;;;;4993165;28;20210;-84
2022/05/05 05:54:53;;;;;;;15.73;9.00;;;9.20;99.90;;;;;;5001763;28;20195;-84
2022/05/05 05:57:22;;;;;;;15.70;8.80;;;9.70;99.90;;;;;;5001158;28;20208;-83
2022/05/05 05:59:49;;;;;;;18.33;9.23;;;10.60;99.90;;;;;;5000260;28;20201;-83
2022/05/05 06:05:01;;;;;;;16.97;9.70;;;12.90;99.90;;;;;;4990883;28;20588;-83
2022/05/05 06:07:29;;;;;;;16.77;8.13;;;14.20;99.90;;;;;;4990630;28;20214;-82
2022/05/05 06:09:56;;;;;;;17.23;8.20;;;15.20;99.90;;;;;;4988975;28;20227;-82
2022/05/05 06:12:22;;;;;;;14.03;7.60;;;16.10;99.90;;;;;;4988828;28;20215;-84
2022/05/05 06:14:49;;;;;;;15.77;8.27;;;16.60;99.90;;;;;;4990139;28;20263;-82
2022/05/05 06:17:17;;;;;;;13.30;8.18;;;16.90;99.90;;;;;;4987728;28;20204;-81
2022/05/05 06:19:43;;;;;;;14.50;8.40;;;17.30;99.90;;;;;;4962945;28;20293;-80
2022/05/05 06:22:10;;;;;;;17.00;8.30;;;17.80;99.90;;;;;;4985768;28;20207;-79
2022/05/05 06:24:38;;;;;;;15.80;8.05;;;18.60;99.90;;;;;;4985491;28;20204;-83
2022/05/05 06:27:05;;;;;;;15.73;8.85;;;19.40;99.90;;;;;;4989267;28;20222;-82
2022/05/05 06:29:32;;;;;;;14.70;9.30;;;19.90;99.90;;;;;;4990935;28;20199;-81
2022/05/05 06:31:58;;;;;;;14.27;8.63;;;20.30;99.90;;;;;;4995655;28;20196;-81
2022/05/05 06:34:25;;;;;;;16.02;8.68;;;20.90;99.90;;;;;;4988493;28;20712;-79
2022/05/05 06:36:52;;;;;;;19.42;9.25;;;21.10;99.90;;;;;;4990950;28;20213;-81
2022/05/05 06:39:19;;;;;;;14.15;7.75;;;;;;;;;;4989205;28;20199;-82
2022/05/05 06:41:46;;;;;;;14.00;8.23;;;22.00;99.00;;;;;;5003582;28;20192;-81
2022/05/05 06:44:13;;;;;;;15.43;8.02;;;22.40;98.30;;;;;;4975463;28;20235;-80
2022/05/05 06:46:40;;;;;;;12.23;8.60;;;22.70;96.60;;;;;;4984672;28;20207;-79
2022/05/05 06:49:07;;;;;;;12.32;8.15;;;23.00;96.00;;;;;;4988352;28;20262;-80
2022/05/05 06:51:34;;;;;;;15.52;8.35;;;23.30;94.80;;;;;;4995260;28;20237;-81
2022/05/05 06:54:05;;;;;;;15.02;8.43;;;23.40;93.80;;;;;;4997773;28;20511;-83
2022/05/05 06:56:32;;;;;;;15.70;8.15;;;23.60;93.40;;;;;;4995656;28;20605;-83
2022/05/05 06:58:59;;;;;;;15.20;8.80;;;23.80;92.70;;;;;;4996989;28;20206;-83
2022/05/05 07:07:11;;;;;;;12.73;8.52;;;24.50;91.00;;;;;;4998424;28;20220;-83
2022/05/05 07:12:26;;;;;;;17.20;8.40;;;24.90;89.10;;;;;;4991006;28;20222;-80
2022/05/05 07:14:53;;;;;;;13.63;9.02;;;25.10;87.80;;;;;;4974815;28;20611;-82
2022/05/05 07:17:22;;;;;;;13.50;8.30;;;25.30;85.80;;;;;;4980139;28;20307;-82
2022/05/05 07:19:49;;;;;;;15.50;8.10;;;25.30;84.70;;;;;;4998488;28;20211;-82
2022/05/05 07:22:16;;;;;;;18.55;9.82;;;25.30;84.90;;;;;;4992365;28;20245;-82
2022/05/05 07:24:43;;;;;;;11.70;7.90;;;25.50;84.30;;;;;;4986607;28;20195;-81
2022/05/05 07:27:11;;;;;;;11.98;8.05;;;25.70;82.60;;;;;;4974544;28;20665;-81
2022/05/05 07:29:38;;;;;;;13.75;7.90;;;25.70;81.80;;;;;;4970558;28;20215;-82
2022/05/05 07:32:06;;;;;;;12.10;7.95;;;25.60;81.40;;;;;;4987018;28;20231;-80
2022/05/05 07:34:34;;;;;;;14.82;9.00;;;25.80;81.70;;;;;;4989722;28;20682;-80
2022/05/05 07:37:02;;;;;;;11.85;7.90;;;26.10;81.30;;;;;;4984228;28;20663;-80
2022/05/05 07:39:29;;;;;;;12.32;8.40;;;;;;;;;;4989736;28;20207;-81
2022/05/05 07:41:56;;;;;;;13.55;7.57;;;26.70;78.10;;;;;;4990037;28;20211;-81
2022/05/05 07:44:23;;;;;;;14.30;8.10;;;26.90;77.30;;;;;;4985699;28;20208;-81
2022/05/05 07:46:50;;;;;;;12.55;7.38;;;27.00;76.10;;;;;;5000583;28;20293;-82
2022/05/05 07:49:25;;;;;;;11.40;7.38;;;26.30;75.60;;;;;;4979096;28;20231;-82
2022/05/05 07:51:53;;;;;;;13.55;7.65;;;26.20;73.50;;;;;;4992976;28;20227;-82
2022/05/05 07:54:38;;;;;;;11.02;6.85;;;25.90;75.30;;;;;;4998665;28;20266;-81
2022/05/05 07:57:08;;;;;;;11.30;6.93;;;26.00;74.20;;;;;;5002614;28;20263;-82
2022/05/05 07:59:36;;;;;;;10.73;6.90;;;26.10;72.90;;;;;;4978003;28;20504;-83
2022/05/05 08:02:03;;;;;;;14.10;7.43;;;25.90;72.30;;;;;;4997136;28;20199;-81
2022/05/05 08:04:31;;;;;;;12.02;7.53;;;25.50;72.60;;;;;;4998245;28;20312;-83
2022/05/05 08:06:58;;;;;;;7.80;6.15;;;25.30;72.10;;;;;;4990430;28;20759;-83
2022/05/05 08:09:26;;;;;;;8.20;5.82;;;24.70;72.00;;;;;;4997093;28;20233;-82
2022/05/05 08:12:18;;;;;;;11.20;7.97;;;24.20;71.80;;;;;;5001885;28;20273;-82
2022/05/05 08:14:46;;;;;;;13.68;8.82;;;23.90;74.90;;;;;;4995090;28;20199;-84
2022/05/05 08:17:14;;;;;;;11.13;6.50;;;23.80;75.40;;;;;;4993290;28;20673;-80
2022/05/05 08:19:41;;;;;;;9.88;7.30;;;23.70;74.70;;;;;;4983274;28;20226;-81
2022/05/05 08:22:08;;;;;;;12.65;7.97;;;23.70;74.50;;;;;;4986174;28;20935;-81
2022/05/05 08:30:06;;;;;;;14.20;8.45;;;23.10;76.00;;;;;;4985881;28;20683;-81
2022/05/05 08:32:33;;;;;;;12.57;8.25;;;23.00;76.60;;;;;;4970496;28;20207;-82
2022/05/05 08:35:03;;;;;;;13.23;8.57;;;22.90;76.90;;;;;;4989707;28;20222;-83
2022/05/05 08:37:30;;;;;;;17.05;9.77;;;22.90;76.80;;;;;;5000181;28;20667;-81
2022/05/05 08:39:57;;;;;;;15.50;9.43;;;23.00;76.60;;;;;;4985825;28;20994;-81
2022/05/05 08:42:25;;;;;;;15.02;10.15;;;22.60;78.00;;;;;;4969862;28;20207;-82
2022/05/05 08:44:52;;;;;;;14.38;10.00;;;22.40;78.60;;;;;;4984169;28;20207;-81
2022/05/05 08:47:23;;;;;;;12.90;8.95;;;22.20;79.90;;;;;;4987843;28;20616;-81
2022/05/05 08:49:57;;;;;;;15.52;9.25;;;22.20;79.20;;;;;;4989313;28;20249;-83
2022/05/05 08:52:24;;;;;;;14.35;8.38;;;22.00;79.40;;;;;;4995433;28;20255;-84
2022/05/05 08:54:51;;;;;;;14.70;8.77;;;21.70;80.80;;;;;;4993547;28;20204;-82
2022/05/05 08:57:19;;;;;;;16.27;9.73;;;21.70;81.40;;;;;;4975986;28;20231;-84
2022/05/05 08:59:45;;;;;;;17.00;10.30;;;21.80;81.20;;;;;;4993957;28;20353;-84
2022/05/05 09:02:16;;;;;;;15.23;10.05;;;21.80;81.90;;;;;;4992219;28;20290;-83
2022/05/05 09:04:46;;;;;;;14.45;9.63;;;21.70;81.90;;;;;;4983831;28;20318;-83
2022/05/05 09:07:13;;;;;;;17.70;10.98;;;21.70;81.80;;;;;;4987629;28;20218;-81
2022/05/05 09:09:40;;;;;;;16.83;10.70;;;21.60;82.40;;;;;;4984266;28;20211;-81
2022/05/05 09:12:21;;;;;;;20.10;10.75;;;21.70;82.80;;;;;;4985319;28;20285;-80
2022/05/05 09:14:53;;;;;;;19.58;10.93;;;21.70;82.80;;;;;;4981759;28;20204;-79
2022/05/05 09:17:23;;;;;;;16.35;10.38;;;21.80;82.90;;;;;;4980828;28;20219;-85
2022/05/05 09:19:54;;;;;;;16.73;11.07;;;21.80;82.90;;;;;;4984801;28;20211;-83
2022/05/05 09:22:25;;;;;;;17.45;10.80;;;21.70;82.30;;;;;;4982132;28;20204;-80
2022/05/05 09:24:56;;;;;;;21.05;11.98;;;21.70;83.60;;;;;;4985355;28;20813;-79
2022/05/05 09:27:34;;;;;;;18.98;11.20;;;21.70;82.70;;;;;;4987818;28;20207;-80
2022/05/05 09:30:10;;;;;;;20.25;11.73;;;21.80;82.80;;;;;;4971997;28;20829;-79
2022/05/05 09:32:40;;;;;;;21.17;12.30;;;21.90;82.30;;;;;;4982983;28;20226;-79
2022/05/05 09:35:09;;;;;;;18.55;10.70;;;21.90;83.00;;;;;;4982178;28;20224;-78
2022/05/05 09:37:37;;;;;;;18.08;11.15;;;21.80;84.40;;;;;;4986105;28;20218;-81
2022/05/05 09:40:08;;;;;;;18.95;11.93;;;22.00;83.20;;;;;;4992973;28;20247;-80
2022/05/05 09:42:43;;;;;;;21.58;13.27;;;22.10;82.30;;;;;;4994078;28;20746;-81
2022/05/05 09:45:16;;;;;;;21.88;11.50;;;22.30;81.90;;;;;;4995510;28;20298;-79
2022/05/05 09:47:49;;;;;;;20.17;11.80;;;22.20;82.80;;;;;;4995598;28;20235;-79
2022/05/05 09:50:19;;;;;;;20.70;11.70;;;22.40;83.20;;;;;;4989034;28;20239;-78
2022/05/05 09:58:22;;;;;;;19.63;11.80;;;22.50;81.50;;;;;;4989390;28;20211;-80
2022/05/05 10:01:04;;;;;;;20.25;10.60;;;22.50;81.90;;;;;;4984314;28;20295;-79
2022/05/05 10:04:00;;;;;;;21.65;12.05;;;22.60;81.90;;;;;;4985028;28;20222;-79
2022/05/05 10:06:35;;;;;;;22.67;12.32;;;22.80;81.20;;;;;;4981200;28;20566;-81
2022/05/05 10:09:05;;;;;;;19.08;12.10;;;23.00;80.60;;;;;;4983415;28;20229;-79
2022/05/05 10:11:33;;;;;;;19.67;12.20;;;23.10;80.40;;;;;;4980506;28;20242;-81
2022/05/05 10:14:05;;;;;;;19.52;11.73;;;23.20;81.10;;;;;;4983262;28;20266;-80
2022/05/05 10:16:33;;;;;;;20.83;11.82;;;23.10;80.80;;;;;;4964958;28;20203;-80
2022/05/05 10:19:08;;;;;;;23.17;12.07;;;23.10;80.30;;;;;;4980848;28;20219;-79
2022/05/05 10:22:00;;;;;;;16.52;10.63;;;23.00;81.20;;;;;;4982798;28;20203;-79
2022/05/05 10:24:28;;;;;;;18.77;10.63;;;23.10;81.40;;;;;;4978847;28;20215;-81
2022/05/05 10:26:58;;;;;;;14.18;9.30;;;23.20;80.30;;;;;;4982604;28;20219;-80
2022/05/05 10:29:31;;;;;;;15.73;9.70;;;23.40;80.00;;;;;;4967141;28;20273;-80
2022/05/05 10:32:12;;;;;;;14.38;9.10;;;23.60;79.50;;;;;;4982259;28;20251;-83
2022/05/05 10:34:41;;;;;;;17.58;9.23;;;23.70;78.60;;;;;;4979548;28;20222;-80
2022/05/05 10:37:11;;;;;;;14.95;8.80;;;23.80;78.40;;;;;;4971053;28;20609;-84
2022/05/05 10:39:46;;;;;;;15.90;10.00;;;23.90;78.50;;;;;;4981160;28;20574;-79
2022/05/05 10:42:33;;;;;;;16.38;10.27;;;24.00;78.70;;;;;;4982154;28;20195;-82
2022/05/05 10:45:32;;;;;;;15.05;9.60;;;23.90;77.30;;;;;;4982780;28;20207;-76
2022/05/05 10:48:01;;;;;;;17.85;9.85;;;23.90;76.90;;;;;;4982071;28;20858;-82
2022/05/05 10:50:31;;;;;;;15.45;9.65;;;23.70;76.80;;;;;;4986687;28;20299;-81
2022/05/05 10:52:59;;;;;;;15.35;9.50;;;23.60;78.30;;;;;;4987179;28;20262;-81
2022/05/05 10:55:45;;;;;;;19.33;11.05;;;23.60;77.80;;;;;;4986416;28;20207;-79
2022/05/05 10:58:56;;;;;;;14.95;9.10;;;23.70;77.20;;;;;;4984978;28;20210;-80
2022/05/05 11:01:25;;;;;;;17.63;10.35;;;23.70;76.20;;;;;;4985434;28;20203;-81
2022/05/05 11:04:05;;;;;;;17.77;10.00;;;23.80;75.90;;;;;;4983906;28;20737;-80
2022/05/05 11:06:33;;;;;;;15.23;10.27;;;23.80;77.60;;;;;;4983579;28;20209;-81
2022/05/05 11:09:00;;;;;;;18.10;10.73;;;23.80;77.30;;;;;;4982054;28;20574;-82
2022/05/05 11:11:41;;;;;;;20.02;10.90;;;23.80;77.30;;;;;;4983709;28;20235;-79
2022/05/05 11:23:08;;;;;;;24.65;12.52;;;23.50;77.40;;;;;;4989294;28;20211;-84
2022/05/05 11:25:41;;;;;;;18.05;10.77;;;23.50;76.90;;;;;;4988004;28;20206;-82
2022/05/05 11:28:09;;;;;;;25.42;11.80;;;23.30;76.90;;;;;;4985371;28;20744;-84
2022/05/05 11:30:36;;;;;;;18.48;10.73;;;23.20;77.30;;;;;;4986480;28;20663;-83
2022/05/05 11:33:06;;;;;;;17.33;10.60;;;23.20;78.10;;;;;;4982488;28;20490;-83
2022/05/05 11:35:52;;;;;;;21.90;10.10;;;23.10;78.40;;;;;;4973074;28;20203;-83
2022/05/05 11:38:19;;;;;;;16.52;10.02;;;23.10;78.80;;;;;;4968728;28;20210;-82
2022/05/05 11:40:46;;;;;;;17.90;10.63;;;23.30;79.30;;;;;;4985566;28;20262;-84
2022/05/05 11:45:59;;;;;;;18.00;10.75;;;23.30;79.30;;;;;;4988000;28;20269;-83
2022/05/05 11:48:26;;;;;;;17.05;10.18;;;23.50;79.40;;;;;;4984494;28;20229;-81
2022/05/05 11:51:06;;;;;;;17.27;9.93;;;23.50;79.50;;;;;;4983328;28;20202;-82
2022/05/05 11:53:33;;;;;;;19.60;10.25;;;23.60;79.10;;;;;;4991860;28;20215;-82
2022/05/05 11:56:00;;;;;;;19.52;11.90;;;23.70;79.10;;;;;;4986958;28;20607;-81
2022/05/05 12:01:38;;;;;;;18.77;10.82;;;23.90;77.30;;;;;;4988083;28;20207;-79
2022/05/05 12:04:08;;;;;;;18.13;10.40;;;24.10;77.50;;;;;;4973454;28;20220;-81
2022/05/05 12:06:37;;;;;;;19.70;9.88;;;24.10;77.10;;;;;;4977615;28;20215;-80
2022/05/05 12:09:07;;;;;;;16.95;9.43;;;24.30;77.40;;;;;;4977773;28;20203;-79
2022/05/05 12:11:35;;;;;;;19.45;9.98;;;24.50;76.70;;;;;;4961844;28;20522;-80
2022/05/05 12:14:06;;;;;;;16.42;9.25;;;24.70;76.20;;;;;;4977094;28;20261;-81
2022/05/05 12:16:34;;;;;;;14.75;8.90;;;24.70;75.80;;;;;;4979194;28;20258;-77
2022/05/05 12:19:13;;;;;;;14.35;9.38;;;24.50;74.80;;;;;;4980988;28;20544;-79
2022/05/05 12:22:01;;;;;;;15.02;9.65;;;24.30;73.90;;;;;;4978854;28;20301;-80
2022/05/05 12:24:30;;;;;;;18.65;9.43;;;23.90;74.50;;;;;;4979115;28;20207;-81
2022/05/05 12:27:08;;;;;;;17.23;9.35;;;23.70;75.70;;;;;;4975823;28;20208;-80
2022/05/05 12:29:39;;;;;;;13.43;8.00;;;23.60;76.30;;;;;;4977932;28;20407;-79
2022/05/05 12:32:15;;;;;;;14.02;8.90;;;23.50;76.60;;;;;;4979339;28;20351;-80
2022/05/05 12:34:43;;;;;;;16.17;9.30;;;23.30;76.90;;;;;;4978182;28;20254;-79
2022/05/05 12:37:15;;;;;;;16.80;9.20;;;23.20;77.80;;;;;;4978147;28;20207;-80
2022/05/05 12:39:58;;;;;;;16.52;9.82;;;23.20;78.30;;;;;;4978740;28;20266;-80
2022/05/05 12:42:40;;;;;;;15.07;9.07;;;23.10;78.20;;;;;;4977527;28;20847;-81
2022/05/05 12:45:24;;;;;;;15.73;9.38;;;23.00;79.10;;;;;;4975563;28;20207;-80
2022/05/05 12:47:51;;;;;;;16.83;9.27;;;22.90;78.70;;;;;;4975530;28;20226;-81
2022/05/05 12:50:36;;;;;;;14.95;8.95;;;22.70;78.70;;;;;;4975857;28;20235;-79
2022/05/05 13:01:31;;;;;;;15.68;8.88;;;22.50;79.70;;;;;;4977272;28;20207;-80
2022/05/05 13:04:01;;;;;;;17.75;9.57;;;22.50;79.20;;;;;;4978207;28;20270;-81
2022/05/05 13:06:28;;;;;;;14.43;8.93;;;22.60;79.70;;;;;;4975185;28;20222;-80
2022/05/05 13:08:55;;;;;;;14.43;9.23;;;22.70;79.90;;;;;;4975249;28;20725;-81
2022/05/05 13:11:22;;;;;;;14.50;8.63;;;22.80;79.70;;;;;;4975974;28;20211;-79
2022/05/05 13:13:51;;;;;;;15.23;8.93;;;22.90;78.60;;;;;;4975352;28;20215;-81
2022/05/05 13:16:24;;;;;;;12.60;8.45;;;23.10;78.60;;;;;;4979829;28;21174;-78
2022/05/05 13:18:51;;;;;;;17.33;8.73;;;23.30;78.20;;;;;;4982716;28;20242;-79
2022/05/05 13:21:18;;;;;;;15.77;7.97;;;23.30;77.90;;;;;;4980432;28;20636;-79
2022/05/05 13:23:45;;;;;;;16.17;8.60;;;23.40;78.50;;;;;;4981383;28;20235;-81
2022/05/05 13:26:11;;;;;;;14.23;8.60;;;23.60;78.00;;;;;;4974042;28;20290;-80
2022/05/05 13:28:39;;;;;;;18.05;9.45;;;23.80;77.30;;;;;;4984915;28;20686;-83
2022/05/05 13:31:06;;;;;;;17.35;9.98;;;24.00;76.80;;;;;;4986834;28;20211;-83
2022/05/05 13:33:34;;;;;;;17.17;9.65;;;24.10;77.10;;;;;;4961112;28;20692;-82
2022/05/05 13:36:01;;;;;;;13.20;9.35;;;24.10;76.00;;;;;;4976377;28;20698;-80
2022/05/05 13:38:28;;;;;;;23.58;10.38;;;24.10;75.30;;;;;;4964065;28;20710;-80
2022/05/05 13:41:15;;;;;;;17.63;10.43;;;24.20;75.00;;;;;;4980156;28;20210;-80
2022/05/05 13:43:42;;;;;;;18.13;9.65;;;24.10;75.10;;;;;;4978961;28;20231;-81
2022/05/05 13:46:09;;;;;;;14.23;8.73;;;24.00;74.40;;;;;;4979309;28;20616;-80
2022/05/05 13:48:39;;;;;;;15.93;9.05;;;23.90;75.10;;;;;;4977049;28;20223;-80
2022/05/05 13:51:06;;;;;;;12.68;7.95;;;23.80;75.50;;;;;;4971433;28;20598;-79
2022/05/05 13:53:33;;;;;;;18.58;9.68;;;23.70;75.40;;;;;;4969224;28;20297;-82